Time;durP1;ratioP1;P1;durP2;ratioP2;P2;SDS_P1;SDS_P2;PMS_P1;PMS_P2;Temp;Humidity;BMP_temperature;BMP_pressure;BME280_temperature;BME280_humidity;BME280_pressure;Samples;Min_cycle;Max_cycle;Signal;HPM_P1;HPM_P2
2022/07/13 00:00:17;;;;;;;;;;;;;;;;;;5088968;28;46398;-78
2022/07/13 00:02:43;;;;;;;;;;;;;;;;;;5085461;28;45746;-79
2022/07/13 00:05:10;;;;;;;;;;;;;;;;;;5080358;28;41383;-78
2022/07/13 00:07:36;;;;;;;;;;;;;;;;;;5087982;28;44483;-78
2022/07/13 00:10:02;;;;;;;;;;;;;;;;;;5089302;28;44077;-79
2022/07/13 00:12:28;;;;;;;;;;;;;;;;;;5088763;28;46281;-78
2022/07/13 00:14:55;;;;;;;;;;;;;;;;;;5088600;28;46762;-79
2022/07/13 00:17:21;;;;;;;;;;;;;;;;;;5103680;28;46313;-79
2022/07/13 00:19:47;;;;;;;;;;;;;;;;;;5087301;28;46252;-78
2022/07/13 00:22:13;;;;;;;;;;;;;;;;;;5088560;28;47000;-79
2022/07/13 00:24:40;;;;;;;;;;;;;;;;;;5089128;28;44851;-79
2022/07/13 00:27:06;;;;;;;;;;;;;;;;;;5085578;28;46630;-79
2022/07/13 00:29:33;;;;;;;;;;;;;;;;;;5088369;28;48219;-79
2022/07/13 00:31:59;;;;;;;;;;;;;;;;;;5089558;28;46697;-78
2022/07/13 00:34:25;;;;;;;;;;;;;;;;;;5090800;28;45435;-79
2022/07/13 00:36:51;;;;;;;;;;;;;;;;;;5094172;28;45138;-79
2022/07/13 00:39:18;;;;;;;;;;;;;;;;;;5094538;28;46204;-77
2022/07/13 00:41:44;;;;;;;;;;;;;;;;;;5083104;28;47925;-80
2022/07/13 00:44:11;;;;;;;;;;;;;;;;;;5089251;28;43405;-77
2022/07/13 00:46:37;;;;;;;;;;;;;;;;;;5084919;28;46249;-77
2022/07/13 00:49:03;;;;;;;;;;;;;;;;;;5088137;28;48138;-78
2022/07/13 00:51:30;;;;;;;;;;;;;;;;;;5089777;28;44822;-78
2022/07/13 00:53:56;;;;;;;;;;;;;;;;;;5086949;28;48135;-79
2022/07/13 00:56:22;;;;;;;;;;;;;;;;;;5091525;28;43143;-78
2022/07/13 00:58:48;;;;;;;;;;;;;;;;;;5080176;28;47478;-78
2022/07/13 01:01:15;;;;;;;;;;;;;;;;;;5088127;28;46888;-79
2022/07/13 01:03:41;;;;;;;;;;;;;;;;;;5087660;28;43204;-78
2022/07/13 01:06:07;;;;;;;;;;;;;;;;;;5082214;28;46983;-77
2022/07/13 01:08:34;;;;;;;;;;;;;;;;;;5086441;28;44635;-77
2022/07/13 01:11:00;;;;;;;;;;;;;;;;;;5087044;28;44672;-78
2022/07/13 01:13:26;;;;;;;;;;;;;;;;;;5085674;28;48102;-77
2022/07/13 01:15:52;;;;;;;;;;;;;;;;;;5084922;28;43702;-77
2022/07/13 01:18:19;;;;;;;;;;;;;;;;;;5082886;28;47550;-77
2022/07/13 01:20:45;;;;;;;;;;;;;;;;;;5085939;28;48350;-77
2022/07/13 01:23:11;;;;;;;;;;;;;;;;;;5086405;28;43902;-77
2022/07/13 01:25:38;;;;;;;;;;;;;;;;;;5084629;28;46376;-77
2022/07/13 01:28:04;;;;;;;;;;;;;;;;;;5078640;28;45687;-78
2022/07/13 01:30:30;;;;;;;;;;;;;;;;;;5085135;28;44604;-78
2022/07/13 01:32:56;;;;;;;;;;;;;;;;;;5082148;28;45760;-78
2022/07/13 01:35:23;;;;;;;;;;;;;;;;;;5081325;28;43582;-78
2022/07/13 01:37:49;;;;;;;;;;;;;;;;;;5086228;28;45906;-78
2022/07/13 01:40:16;;;;;;;;;;;;;;;;;;5087044;28;46966;-79
2022/07/13 01:42:43;;;;;;;;;;;;;;;;;;5080785;28;45252;-78
2022/07/13 01:45:09;;;;;;;;;;;;;;;;;;5085924;28;45854;-78
2022/07/13 01:47:35;;;;;;;;;;;;;;;;;;5085902;28;47196;-78
2022/07/13 01:50:01;;;;;;;;;;;;;;;;;;5079283;28;43616;-78
2022/07/13 01:52:28;;;;;;;;;;;;;;;;;;5081270;28;46396;-78
2022/07/13 01:54:54;;;;;;;;;;;;;;;;;;5087438;28;48579;-78
2022/07/13 01:57:20;;;;;;;;;;;;;;;;;;5087239;28;46379;-78
2022/07/13 01:59:46;;;;;;;;;;;;;;;;;;5086858;28;46904;-77
2022/07/13 02:02:13;;;;;;;;;;;;;;;;;;5082319;28;45602;-78
2022/07/13 02:04:40;;;;;;;;;;;;;;;;;;5097573;28;47819;-78
2022/07/13 02:07:06;;;;;;;;;;;;;;;;;;5085160;28;46917;-77
2022/07/13 02:09:32;;;;;;;;;;;;;;;;;;5083696;28;41777;-78
2022/07/13 02:11:59;;;;;;;;;;;;;;;;;;5082975;28;46360;-78
2022/07/13 02:14:25;;;;;;;;;;;;;;;;;;5084120;28;49775;-78
2022/07/13 02:16:51;;;;;;;;;;;;;;;;;;5083740;28;46322;-77
2022/07/13 02:19:18;;;;;;;;;;;;;;;;;;5081788;28;46486;-78
2022/07/13 02:21:46;;;;;;;;;;;;;;;;;;5100955;28;42180;-78
2022/07/13 02:24:12;;;;;;;;;;;;;;;;;;5082372;28;47129;-78
2022/07/13 02:26:38;;;;;;;;;;;;;;;;;;5084235;28;48780;-79
2022/07/13 02:29:05;;;;;;;;;;;;;;;;;;5084360;28;46030;-78
2022/07/13 02:31:34;;;;;;;;;;;;;;;;;;5084956;28;49855;-79
2022/07/13 02:34:01;;;;;;;;;;;;;;;;;;5085372;28;47257;-78
2022/07/13 02:36:27;;;;;;;;;;;;;;;;;;5086443;28;44810;-78
2022/07/13 02:38:53;;;;;;;;;;;;;;;;;;5081880;28;44891;-78
2022/07/13 02:41:20;;;;;;;;;;;;;;;;;;5090881;28;45168;-78
2022/07/13 02:43:46;;;;;;;;;;;;;;;;;;5088236;28;47561;-78
2022/07/13 02:46:12;;;;;;;;;;;;;;;;;;5089105;28;45545;-77
2022/07/13 02:48:38;;;;;;;;;;;;;;;;;;5086508;28;45284;-78
2022/07/13 02:51:05;;;;;;;;;;;;;;;;;;5086812;28;44923;-78
2022/07/13 02:53:31;;;;;;;;;;;;;;;;;;5086835;28;48058;-79
2022/07/13 02:55:58;;;;;;;;;;;;;;;;;;5088062;28;44740;-79
2022/07/13 02:58:25;;;;;;;;;;;;;;;;;;5084177;28;45284;-78
2022/07/13 03:00:51;;;;;;;;;;;;;;;;;;5087766;28;35516;-79
2022/07/13 03:03:17;;;;;;;;;;;;;;;;;;5089983;28;46995;-78
2022/07/13 03:05:44;;;;;;;;;;;;;;;;;;5084551;28;45187;-79
2022/07/13 03:08:10;;;;;;;;;;;;;;;;;;5089521;28;41849;-79
2022/07/13 03:10:37;;;;;;;;;;;;;;;;;;5082511;28;48129;-79
2022/07/13 03:13:03;;;;;;;;;;;;;;;;;;5086927;28;46989;-79
2022/07/13 03:15:29;;;;;;;;;;;;;;;;;;5085150;28;44875;-79
2022/07/13 03:17:55;;;;;;;;;;;;;;;;;;5084990;28;45097;-79
2022/07/13 03:20:22;;;;;;;;;;;;;;;;;;5085901;28;45774;-79
2022/07/13 03:22:49;;;;;;;;;;;;;;;;;;5090848;28;46007;-78
2022/07/13 03:25:17;;;;;;;;;;;;;;;;;;5092268;28;49934;-78
2022/07/13 03:27:46;;;;;;;;;;;;;;;;;;5088240;28;43896;-79
2022/07/13 03:30:12;;;;;;;;;;;;;;;;;;5094204;28;46243;-79
2022/07/13 03:32:39;;;;;;;;;;;;;;;;;;5091744;28;48041;-78
2022/07/13 03:35:05;;;;;;;;;;;;;;;;;;5093590;28;46727;-79
2022/07/13 03:37:31;;;;;;;;;;;;;;;;;;5089022;28;47387;-79
2022/07/13 03:39:57;;;;;;;;;;;;;;;;;;5091943;28;47266;-79
2022/07/13 03:42:24;;;;;;;;;;;;;;;;;;5092215;28;46520;-79
2022/07/13 03:44:50;;;;;;;;;;;;;;;;;;5092871;28;48765;-78
2022/07/13 03:47:16;;;;;;;;;;;;;;;;;;5092223;28;42092;-78
2022/07/13 03:49:43;;;;;;;;;;;;;;;;;;5082015;28;48203;-78
2022/07/13 03:52:09;;;;;;;;;;;;;;;;;;5091519;28;45483;-78
2022/07/13 03:54:35;;;;;;;;;;;;;;;;;;5092245;28;44624;-78
2022/07/13 03:57:01;;;;;;;;;;;;;;;;;;5091656;28;46220;-78
2022/07/13 03:59:27;;;;;;;;;;;;;;;;;;5093756;28;47157;-78
2022/07/13 04:01:54;;;;;;;;;;;;;;;;;;5090609;28;46348;-78
2022/07/13 04:04:20;;;;;;;;;;;;;;;;;;5090593;28;46275;-79
2022/07/13 04:06:46;;;;;;;;;;;;;;;;;;5088195;28;44742;-79
2022/07/13 04:09:13;;;;;;;;;;;;;;;;;;5079336;28;47666;-79
2022/07/13 04:11:39;;;;;;;;;;;;;;;;;;5080291;28;46451;-78
2022/07/13 04:14:05;;;;;;;;;;;;;;;;;;5099842;28;44666;-78
2022/07/13 04:16:32;;;;;;;;;;;;;;;;;;5085797;28;44686;-79
2022/07/13 04:18:58;;;;;;;;;;;;;;;;;;5088239;28;46146;-78
2022/07/13 04:21:24;;;;;;;;;;;;;;;;;;5087478;28;45432;-78
2022/07/13 04:23:51;;;;;;;;;;;;;;;;;;5083350;28;45273;-79
2022/07/13 04:26:17;;;;;;;;;;;;;;;;;;5085545;28;45366;-78
2022/07/13 04:28:44;;;;;;;;;;;;;;;;;;5090686;28;46405;-80
2022/07/13 04:31:10;;;;;;;;;;;;;;;;;;5095617;28;48745;-80
2022/07/13 04:33:37;;;;;;;;;;;;;;;;;;5094973;28;42872;-78
2022/07/13 04:36:07;;;;;;;;;;;;;;;;;;5092549;28;46782;-78
2022/07/13 04:38:34;;;;;;;;;;;;;;;;;;5089686;28;45561;-79
2022/07/13 04:41:00;;;;;;;;;;;;;;;;;;5106650;28;43903;-79
2022/07/13 04:43:27;;;;;;;;;;;;;;;;;;5090660;28;45181;-79
2022/07/13 04:45:53;;;;;;;;;;;;;;;;;;5091741;28;46662;-78
2022/07/13 04:48:19;;;;;;;;;;;;;;;;;;5098608;27;42434;-79
2022/07/13 04:50:45;;;;;;;;;;;;;;;;;;5092068;28;47216;-79
2022/07/13 04:53:12;;;;;;;;;;;;;;;;;;5087325;28;43586;-78
2022/07/13 04:55:38;;;;;;;;;;;;;;;;;;5084008;28;49290;-79
2022/07/13 04:58:04;;;;;;;;;;;;;;;;;;5103355;27;47281;-79
2022/07/13 05:00:30;;;;;;;;;;;;;;;;;;5091095;28;43715;-79
2022/07/13 05:03:01;;;;;;;;;;;;;;;;;;5088683;28;46522;-79
2022/07/13 05:05:31;;;;;;;;;;;;;;;;;;5092873;28;50037;-78
2022/07/13 05:07:57;;;;;;;;;;;;;;;;;;5091517;28;42837;-78
2022/07/13 05:10:24;;;;;;;;;;;;;;;;;;5084289;28;47945;-78
2022/07/13 05:12:50;;;;;;;;;;;;;;;;;;5081976;28;45212;-78
2022/07/13 05:15:36;;;;;;;;;;;;;;;;;;5086186;28;19928;-79
2022/07/13 05:18:02;;;;;;;;;;;;;;;;;;5085550;28;48159;-79
2022/07/13 05:20:29;;;;;;;;;;;;;;;;;;5087155;28;43352;-79
2022/07/13 05:22:55;;;;;;;;;;;;;;;;;;5090985;28;47001;-79
2022/07/13 05:25:22;;;;;;;;;;;;;;;;;;5083700;28;49011;-77
2022/07/13 05:27:48;;;;;;;;;;;;;;;;;;5085559;28;44804;-78
2022/07/13 05:30:14;;;;;;;;;;;;;;;;;;5083979;28;46344;-78
2022/07/13 05:32:40;;;;;;;;;;;;;;;;;;5086601;28;44616;-78
2022/07/13 05:35:07;;;;;;;;;;;;;;;;;;5084444;28;47488;-78
2022/07/13 05:37:33;;;;;;;;;;;;;;;;;;5084487;28;47707;-79
2022/07/13 05:39:59;;;;;;;;;;;;;;;;;;5087281;28;43684;-79
2022/07/13 05:42:26;;;;;;;;;;;;;;;;;;5084988;28;46499;-79
2022/07/13 05:44:53;;;;;;;;;;;;;;;;;;5091911;28;47126;-78
2022/07/13 05:47:19;;;;;;;;;;;;;;;;;;5086198;28;42253;-79
2022/07/13 05:49:45;;;;;;;;;;;;;;;;;;5085171;28;47384;-78
2022/07/13 05:52:12;;;;;;;;;;;;;;;;;;5086485;28;46955;-78
2022/07/13 05:54:38;;;;;;;;;;;;;;;;;;5085842;28;46261;-79
2022/07/13 05:57:09;;;;;;;;;;;;;;;;;;5085582;28;48061;-78
2022/07/13 05:59:35;;;;;;;;;;;;;;;;;;5085780;28;43613;-78
2022/07/13 06:02:02;;;;;;;;;;;;;;;;;;5089514;28;47453;-78
2022/07/13 06:04:28;;;;;;;;;;;;;;;;;;5083427;28;49841;-79
2022/07/13 06:06:54;;;;;;;;;;;;;;;;;;5085237;28;44876;-80
2022/07/13 06:09:21;;;;;;;;;;;;;;;;;;5086745;28;46426;-80
2022/07/13 06:11:47;;;;;;;;;;;;;;;;;;5084782;28;49597;-79
2022/07/13 06:14:13;;;;;;;;;;;;;;;;;;5081550;28;44799;-80
2022/07/13 06:16:39;;;;;;;;;;;;;;;;;;5084704;28;48854;-82
2022/07/13 06:19:06;;;;;;;;;;;;;;;;;;5088354;28;43212;-79
2022/07/13 06:21:32;;;;;;;;;;;;;;;;;;5084363;28;46385;-79
2022/07/13 06:23:58;;;;;;;;;;;;;;;;;;5081421;28;48087;-79
2022/07/13 06:26:24;;;;;;;;;;;;;;;;;;5081173;28;42204;-79
2022/07/13 06:28:51;;;;;;;;;;;;;;;;;;5083509;28;45049;-79
2022/07/13 06:31:21;;;;;;;;;;;;;;;;;;5084653;28;46702;-79
2022/07/13 06:33:51;;;;;;;;;;;;;;;;;;5081394;28;43884;-79
2022/07/13 06:36:18;;;;;;;;;;;;;;;;;;5080063;28;46706;-80
2022/07/13 06:38:44;;;;;;;;;;;;;;;;;;5085432;28;44007;-81
2022/07/13 06:41:10;;;;;;;;;;;;;;;;;;5086585;28;47809;-79
2022/07/13 06:43:37;;;;;;;;;;;;;;;;;;5084858;28;45476;-80
2022/07/13 06:46:03;;;;;;;;;;;;;;;;;;5086091;28;43638;-78
2022/07/13 06:48:29;;;;;;;;;;;;;;;;;;5084995;28;46507;-78
2022/07/13 06:50:55;;;;;;;;;;;;;;;;;;5085607;28;47118;-78
2022/07/13 06:53:22;;;;;;;;;;;;;;;;;;5085195;28;41186;-78
2022/07/13 06:55:48;;;;;;;;;;;;;;;;;;5082690;28;47633;-78
2022/07/13 06:58:14;;;;;;;;;;;;;;;;;;5083954;28;46702;-78
2022/07/13 07:00:41;;;;;;;;;;;;;;;;;;5079870;28;47660;-78
2022/07/13 07:03:07;;;;;;;;;;;;;;;;;;5086948;28;45396;-78
2022/07/13 07:05:33;;;;;;;;;;;;;;;;;;5087325;28;45247;-78
2022/07/13 07:08:00;;;;;;;;;;;;;;;;;;5084661;28;44809;-78
2022/07/13 07:10:26;;;;;;;;;;;;;;;;;;5092348;28;48405;-78
2022/07/13 07:12:57;;;;;;;;;;;;;;;;;;5083521;28;43417;-78
2022/07/13 07:15:25;;;;;;;;;;;;;;;;;;5083963;28;47267;-78
2022/07/13 07:17:51;;;;;;;;;;;;;;;;;;5096461;28;45966;-79
2022/07/13 07:20:18;;;;;;;;;;;;;;;;;;5090997;28;47763;-79
2022/07/13 07:22:46;;;;;;;;;;;;;;;;;;5087726;28;48209;-78
2022/07/13 07:25:12;;;;;;;;;;;;;;;;;;5086453;28;44812;-78
2022/07/13 07:27:39;;;;;;;;;;;;;;;;;;5087335;28;47487;-78
2022/07/13 07:30:05;;;;;;;;;;;;;;;;;;5088104;28;48119;-77
2022/07/13 07:32:31;;;;;;;;;;;;;;;;;;5088093;28;44394;-78
2022/07/13 07:34:57;;;;;;;;;;;;;;;;;;5085612;28;47490;-78
2022/07/13 07:37:24;;;;;;;;;;;;;;;;;;5087847;28;46746;-78
2022/07/13 07:39:50;;;;;;;;;;;;;;;;;;5086370;28;42241;-77
2022/07/13 07:42:16;;;;;;;;;;;;;;;;;;5080506;28;47202;-77
2022/07/13 07:44:43;;;;;;;;;;;;;;;;;;5087758;28;44710;-77
2022/07/13 07:47:09;;;;;;;;;;;;;;;;;;5076368;28;46419;-77
2022/07/13 07:49:36;;;;;;;;;;;;;;;;;;5100609;27;50499;-79
2022/07/13 07:52:06;;;;;;;;;;;;;;;;;;5101410;28;42753;-77
2022/07/13 07:54:52;;;;;;;;;;;;;;;;;;5088868;28;19951;-78
2022/07/13 07:57:21;;;;;;;;;;;;;;;;;;5086776;28;45348;-78
2022/07/13 07:59:48;;;;;;;;;;;;;;;;;;5079820;28;43731;-78
2022/07/13 08:02:14;;;;;;;;;;;;;;;;;;5087895;28;47481;-78
2022/07/13 08:04:41;;;;;;;;;;;;;;;;;;5086592;28;43753;-78
2022/07/13 08:07:07;;;;;;;;;;;;;;;;;;5085818;28;46215;-78
2022/07/13 08:09:34;;;;;;;;;;;;;;;;;;5077156;28;48333;-77
2022/07/13 08:12:02;;;;;;;;;;;;;;;;;;5086612;28;44785;-78
2022/07/13 08:14:29;;;;;;;;;;;;;;;;;;5081242;28;47401;-78
2022/07/13 08:16:56;;;;;;;;;;;;;;;;;;5086105;28;47006;-78
2022/07/13 08:19:24;;;;;;;;;;;;;;;;;;5087267;28;45044;-79
2022/07/13 08:22:07;;;;;;;;;;;;;;;;;;5086008;28;46137;-78
2022/07/13 08:24:34;;;;;;;;;;;;;;;;;;5084177;28;48861;-78
2022/07/13 08:27:01;;;;;;;;;;;;;;;;;;5085103;28;46799;-77
2022/07/13 08:29:27;;;;;;;;;;;;;;;;;;5082145;28;46420;-78
2022/07/13 08:31:53;;;;;;;;;;;;;;;;;;5087802;28;42299;-79
2022/07/13 08:39:50;;;;;;;;;;;;;;;;;;5086985;28;43871;-78
2022/07/13 08:42:16;;;;;;;;;;;;;;;;;;5087593;28;46666;-77
2022/07/13 08:44:42;;;;;;;;;;;;;;;;;;5087010;28;47060;-79
2022/07/13 08:47:08;;;;;;;;;;;;;;;;;;5088317;28;44763;-81
2022/07/13 08:49:35;;;;;;;;;;;;;;;;;;5085093;28;47258;-79
2022/07/13 08:52:01;;;;;;;;;;;;;;;;;;5084103;28;43747;-77
2022/07/13 08:54:29;;;;;;;;;;;;;;;;;;5084632;28;44017;-77
2022/07/13 08:56:56;;;;;;;;;;;;;;;;;;5087183;28;47159;-78
2022/07/13 08:59:22;;;;;;;;;;;;;;;;;;5078823;28;43605;-78
2022/07/13 09:01:49;;;;;;;;;;;;;;;;;;5082998;28;46310;-79
2022/07/13 09:04:15;;;;;;;;;;;;;;;;;;5072909;28;47038;-78
2022/07/13 09:06:44;;;;;;;;;;;;;;;;;;5082938;28;44766;-78
2022/07/13 09:09:11;;;;;;;;;;;;;;;;;;5093689;28;46029;-79
2022/07/13 09:11:37;;;;;;;;;;;;;;;;;;5085983;28;42310;-78
2022/07/13 09:14:03;;;;;;;;;;;;;;;;;;5076518;28;47383;-77
2022/07/13 09:16:30;;;;;;;;;;;;;;;;;;5074872;28;47010;-77
2022/07/13 09:18:56;;;;;;;;;;;;;;;;;;5087999;28;44669;-77
2022/07/13 09:21:27;;;;;;;;;;;;;;;;;;5087091;27;47364;-77
2022/07/13 09:23:54;;;;;;;;;;;;;;;;;;5077635;28;45473;-77
2022/07/13 09:26:21;;;;;;;;;;;;;;;;;;5087006;28;43420;-77
2022/07/13 09:28:47;;;;;;;;;;;;;;;;;;5085866;28;45711;-77
2022/07/13 09:31:13;;;;;;;;;;;;;;;;;;5086823;28;43749;-77
2022/07/13 09:33:40;;;;;;;;;;;;;;;;;;5086679;28;47286;-77
2022/07/13 09:36:06;;;;;;;;;;;;;;;;;;5087607;28;48410;-77
2022/07/13 09:38:33;;;;;;;;;;;;;;;;;;5085169;28;43740;-77
2022/07/13 09:40:59;;;;;;;;;;;;;;;;;;5084649;28;44658;-78
2022/07/13 09:46:10;;;;;;;;;;;;;;;;;;5090766;28;42192;-78
2022/07/13 09:48:37;;;;;;;;;;;;;;;;;;5086547;28;44009;-77
2022/07/13 09:51:03;;;;;;;;;;;;;;;;;;5086388;28;46969;-76
2022/07/13 09:53:30;;;;;;;;;;;;;;;;;;5091238;28;47437;-76
2022/07/13 09:55:57;;;;;;;;;;;;;;;;;;5081720;28;48338;-77
2022/07/13 09:58:23;;;;;;;;;;;;;;;;;;5087057;28;42613;-76
2022/07/13 10:00:50;;;;;;;;;;;;;;;;;;5085155;28;46199;-77
2022/07/13 10:03:16;;;;;;;;;;;;;;;;;;5087483;28;48358;-77
2022/07/13 10:05:42;;;;;;;;;;;;;;;;;;5084044;28;45870;-77
2022/07/13 10:08:09;;;;;;;;;;;;;;;;;;5083922;28;47911;-76
2022/07/13 10:10:36;;;;;;;;;;;;;;;;;;5085825;28;48047;-77
2022/07/13 10:13:05;;;;;;;;;;;;;;;;;;5080468;28;43817;-76
2022/07/13 10:15:31;;;;;;;;;;;;;;;;;;5076352;28;45692;-76
2022/07/13 10:17:57;;;;;;;;;;;;;;;;;;5077335;28;43580;-76
2022/07/13 10:20:24;;;;;;;;;;;;;;;;;;5084881;28;46786;-76
2022/07/13 10:22:55;;;;;;;;;;;;;;;;;;5084655;28;46892;-76
2022/07/13 10:25:30;;;;;;;;;;;;;;;;;;5086673;28;44815;-76
2022/07/13 10:27:57;;;;;;;;;;;;;;;;;;5084051;28;47512;-77
2022/07/13 10:30:24;;;;;;;;;;;;;;;;;;5085721;28;48550;-76
2022/07/13 10:32:50;;;;;;;;;;;;;;;;;;5083830;28;45292;-76
2022/07/13 10:35:20;;;;;;;;;;;;;;;;;;5085526;28;44695;-76
2022/07/13 10:37:46;;;;;;;;;;;;;;;;;;5085665;28;43559;-77
2022/07/13 10:40:12;;;;;;;;;;;;;;;;;;5082702;28;44829;-76
2022/07/13 10:42:39;;;;;;;;;;;;;;;;;;5088750;28;47969;-76
2022/07/13 10:45:05;;;;;;;;;;;;;;;;;;5104596;27;44016;-76
2022/07/13 10:47:31;;;;;;;;;;;;;;;;;;5089998;28;44493;-76
2022/07/13 10:49:57;;;;;;;;;;;;;;;;;;5085473;28;45777;-77
2022/07/13 10:52:27;;;;;;;;;;;;;;;;;;5088143;28;43802;-77
2022/07/13 10:54:56;;;;;;;;;;;;;;;;;;5075666;28;47689;-76
2022/07/13 10:57:23;;;;;;;;;;;;;;;;;;5087488;28;47173;-76
2022/07/13 10:59:49;;;;;;;;;;;;;;;;;;5088821;27;46768;-76
2022/07/13 11:02:16;;;;;;;;;;;;;;;;;;5082746;28;46852;-76
2022/07/13 11:04:43;;;;;;;;;;;;;;;;;;5088796;28;44728;-76
2022/07/13 11:07:09;;;;;;;;;;;;;;;;;;5084954;28;47329;-76
2022/07/13 11:09:36;;;;;;;;;;;;;;;;;;5083509;28;47999;-76
2022/07/13 11:12:02;;;;;;;;;;;;;;;;;;5106635;27;44256;-77
2022/07/13 11:14:28;;;;;;;;;;;;;;;;;;5083137;28;47671;-76
2022/07/13 11:16:55;;;;;;;;;;;;;;;;;;5080441;28;47438;-78
2022/07/13 11:19:21;;;;;;;;;;;;;;;;;;5086777;28;44881;-77
2022/07/13 11:21:47;;;;;;;;;;;;;;;;;;5085958;28;46975;-77
2022/07/13 11:26:58;;;;;;;;;;;;;;;;;;5087214;28;47679;-76
2022/07/13 11:29:25;;;;;;;;;;;;;;;;;;5089906;28;48436;-76
2022/07/13 11:31:51;;;;;;;;;;;;;;;;;;5089289;28;44605;-77
2022/07/13 11:34:17;;;;;;;;;;;;;;;;;;5085505;28;47272;-76
2022/07/13 11:36:44;;;;;;;;;;;;;;;;;;5087762;28;48465;-77
2022/07/13 11:39:10;;;;;;;;;;;;;;;;;;5089458;28;45037;-76
2022/07/13 11:41:37;;;;;;;;;;;;;;;;;;5089190;28;48155;-77
2022/07/13 11:44:04;;;;;;;;;;;;;;;;;;5082386;28;45259;-76
2022/07/13 11:46:30;;;;;;;;;;;;;;;;;;5087594;28;46601;-76
2022/07/13 11:48:57;;;;;;;;;;;;;;;;;;5087353;28;48319;-77
2022/07/13 11:51:23;;;;;;;;;;;;;;;;;;5081286;28;45172;-77
2022/07/13 11:53:49;;;;;;;;;;;;;;;;;;5084742;28;46191;-77
2022/07/13 11:56:16;;;;;;;;;;;;;;;;;;5087006;28;48124;-77
2022/07/13 11:58:45;;;;;;;;;;;;;;;;;;5086581;28;45837;-77
2022/07/13 12:01:11;;;;;;;;;;;;;;;;;;5081595;28;46755;-77
2022/07/13 12:03:37;;;;;;;;;;;;;;;;;;5081507;28;44054;-77
2022/07/13 12:06:04;;;;;;;;;;;;;;;;;;5087431;28;47753;-77
2022/07/13 12:08:31;;;;;;;;;;;;;;;;;;5096906;28;47024;-77
2022/07/13 12:10:57;;;;;;;;;;;;;;;;;;5085649;28;43757;-77
2022/07/13 12:13:29;;;;;;;;;;;;;;;;;;5084702;28;46463;-77
2022/07/13 12:15:55;;;;;;;;;;;;;;;;;;5087303;28;48019;-77
2022/07/13 12:18:22;;;;;;;;;;;;;;;;;;5087373;28;43633;-77
2022/07/13 12:20:48;;;;;;;;;;;;;;;;;;5080176;28;47771;-77
2022/07/13 12:23:14;;;;;;;;;;;;;;;;;;5081988;28;45792;-77
2022/07/13 12:25:40;;;;;;;;;;;;;;;;;;5082953;28;44816;-77
2022/07/13 12:28:08;;;;;;;;;;;;;;;;;;5082885;28;48305;-77
2022/07/13 12:30:35;;;;;;;;;;;;;;;;;;5083058;28;43859;-77
2022/07/13 12:33:02;;;;;;;;;;;;;;;;;;5083928;28;45282;-77
2022/07/13 12:35:29;;;;;;;;;;;;;;;;;;5085333;28;46874;-77
2022/07/13 12:37:55;;;;;;;;;;;;;;;;;;5085097;28;43713;-77
2022/07/13 12:40:22;;;;;;;;;;;;;;;;;;5083820;28;46342;-77
2022/07/13 12:42:48;;;;;;;;;;;;;;;;;;5085814;28;46853;-77
2022/07/13 12:45:14;;;;;;;;;;;;;;;;;;5087186;28;44670;-77
2022/07/13 12:47:40;;;;;;;;;;;;;;;;;;5087256;28;48402;-77
2022/07/13 12:50:07;;;;;;;;;;;;;;;;;;5083907;28;44807;-78
2022/07/13 12:52:33;;;;;;;;;;;;;;;;;;5084194;28;47427;-78
2022/07/13 12:54:59;;;;;;;;;;;;;;;;;;5091100;28;45116;-78
2022/07/13 12:57:25;;;;;;;;;;;;;;;;;;5090797;28;44950;-78
2022/07/13 12:59:52;;;;;;;;;;;;;;;;;;5087996;28;45049;-78
2022/07/13 13:02:18;;;;;;;;;;;;;;;;;;5085880;28;47238;-78
2022/07/13 13:04:44;;;;;;;;;;;;;;;;;;5090975;28;43987;-78
2022/07/13 13:07:11;;;;;;;;;;;;;;;;;;5086798;28;46068;-78
2022/07/13 13:09:37;;;;;;;;;;;;;;;;;;5080390;28;45146;-78
2022/07/13 13:12:04;;;;;;;;;;;;;;;;;;5078968;28;45272;-78
2022/07/13 13:14:30;;;;;;;;;;;;;;;;;;5083202;28;48127;-78
2022/07/13 13:16:56;;;;;;;;;;;;;;;;;;5085082;28;43703;-78
2022/07/13 13:19:22;;;;;;;;;;;;;;;;;;5085263;28;47671;-76
2022/07/13 13:21:49;;;;;;;;;;;;;;;;;;5080132;28;44331;-76
2022/07/13 13:24:15;;;;;;;;;;;;;;;;;;5079580;28;42723;-76
2022/07/13 13:26:44;;;;;;;;;;;;;;;;;;5074712;28;47763;-76
2022/07/13 13:32:15;;;;;;;;;;;;;;;;;;5080624;28;46555;-77
2022/07/13 13:34:42;;;;;;;;;;;;;;;;;;5084418;28;46814;-77
2022/07/13 13:37:08;;;;;;;;;;;;;;;;;;5082103;28;45054;-77
2022/07/13 13:39:34;;;;;;;;;;;;;;;;;;5084468;28;46390;-77
2022/07/13 13:42:00;;;;;;;;;;;;;;;;;;5085981;28;48056;-77
2022/07/13 13:44:27;;;;;;;;;;;;;;;;;;5082715;28;43961;-77
2022/07/13 13:46:53;;;;;;;;;;;;;;;;;;5080481;28;47469;-77
2022/07/13 13:49:19;;;;;;;;;;;;;;;;;;5086962;28;46533;-79
2022/07/13 13:51:45;;;;;;;;;;;;;;;;;;5090714;28;47260;-80
2022/07/13 13:54:27;;;;;;;;;;;;;;;;;;5081529;28;48483;-78
2022/07/13 13:56:53;;;;;;;;;;;;;;;;;;5087470;28;44864;-83
2022/07/13 13:59:20;;;;;;;;;;;;;;;;;;5091515;28;47061;-81
2022/07/13 14:01:46;;;;;;;;;;;;;;;;;;5089104;28;49134;-83
2022/07/13 14:04:14;;;;;;;;;;;;;;;;;;5083541;28;43551;-86
2022/07/13 14:06:41;;;;;;;;;;;;;;;;;;5093546;28;44591;-83
2022/07/13 14:09:07;;;;;;;;;;;;;;;;;;5092018;28;46163;-82
2022/07/13 14:11:34;;;;;;;;;;;;;;;;;;5085615;28;43669;-80
2022/07/13 14:14:00;;;;;;;;;;;;;;;;;;5089328;28;48450;-80
2022/07/13 14:16:26;;;;;;;;;;;;;;;;;;5088644;28;44119;-81
2022/07/13 14:18:55;;;;;;;;;;;;;;;;;;5099683;27;35715;-83
2022/07/13 14:21:21;;;;;;;;;;;;;;;;;;5089671;28;46141;-81
2022/07/13 14:23:47;;;;;;;;;;;;;;;;;;5089021;28;44828;-84
2022/07/13 14:26:34;;;;;;;;;;;;;;;;;;5090690;28;19928;-84
2022/07/13 14:29:00;;;;;;;;;;;;;;;;;;5090086;28;49423;-84
2022/07/13 14:31:26;;;;;;;;;;;;;;;;;;5111290;27;43717;-82
2022/07/13 14:33:56;;;;;;;;;;;;;;;;;;5093708;28;48258;-82
2022/07/13 14:36:25;;;;;;;;;;;;;;;;;;5106390;27;44948;-84
2022/07/13 14:38:51;;;;;;;;;;;;;;;;;;5086810;28;47757;-81
2022/07/13 14:41:21;;;;;;;;;;;;;;;;;;5077451;28;50205;-81
2022/07/13 14:43:48;;;;;;;;;;;;;;;;;;5093281;28;42892;-83
2022/07/13 14:46:14;;;;;;;;;;;;;;;;;;5089501;28;46290;-83
2022/07/13 14:48:41;;;;;;;;;;;;;;;;;;5087155;28;48389;-83
2022/07/13 14:51:21;;;;;;;;;;;;;;;;;;5087416;28;41696;-84
2022/07/13 14:53:48;;;;;;;;;;;;;;;;;;5090220;28;48956;-83
2022/07/13 14:56:15;;;;;;;;;;;;;;;;;;5095538;28;45945;-83
2022/07/13 14:58:42;;;;;;;;;;;;;;;;;;5092013;28;44733;-86
2022/07/13 15:01:13;;;;;;;;;;;;;;;;;;5104252;28;45684;-83
2022/07/13 15:03:39;;;;;;;;;;;;;;;;;;5092546;28;41110;-86
2022/07/13 15:06:09;;;;;;;;;;;;;;;;;;5091034;28;43723;-82
2022/07/13 15:08:35;;;;;;;;;;;;;;;;;;5083975;28;48235;-84
2022/07/13 15:11:17;;;;;;;;;;;;;;;;;;5090512;28;42828;-82
2022/07/13 15:13:43;;;;;;;;;;;;;;;;;;5088271;28;44744;-82
2022/07/13 15:16:12;;;;;;;;;;;;;;;;;;5080442;28;44834;-82
2022/07/13 15:18:38;;;;;;;;;;;;;;;;;;5091399;28;44532;-82
2022/07/13 15:21:05;;;;;;;;;;;;;;;;;;5087363;28;46678;-82
2022/07/13 15:23:31;;;;;;;;;;;;;;;;;;5092868;28;44354;-82
2022/07/13 15:25:57;;;;;;;;;;;;;;;;;;5090419;28;44830;-82
2022/07/13 15:28:24;;;;;;;;;;;;;;;;;;5091830;28;46120;-82
2022/07/13 15:30:50;;;;;;;;;;;;;;;;;;5092050;28;45025;-81
2022/07/13 15:33:16;;;;;;;;;;;;;;;;;;5087249;28;46384;-82
2022/07/13 15:35:43;;;;;;;;;;;;;;;;;;5091113;28;46993;-82
2022/07/13 15:38:09;;;;;;;;;;;;;;;;;;5081405;28;43722;-82
2022/07/13 15:46:49;;;;;;;;;;;;;;;;;;5029083;28;19957;-82
2022/07/13 15:49:15;;;;;;;;;;;;;;;;;;5067504;28;48219;-81
2022/07/13 15:51:41;;;;;;;;;;;;;;;;;;5085494;28;45196;-81
2022/07/13 15:54:07;;;;;;;;;;;;;;;;;;5086729;28;46338;-81
2022/07/13 15:56:36;;;;;;;;;;;;;;;;;;5091703;28;44790;-81
2022/07/13 15:59:02;;;;;;;;;;;;;;;;;;5082086;28;41943;-81
2022/07/13 16:01:28;;;;;;;;;;;;;;;;;;5103519;28;44060;-81
2022/07/13 16:03:54;;;;;;;;;;;;;;;;;;5091878;28;42452;-81
2022/07/13 16:06:21;;;;;;;;;;;;;;;;;;5089346;28;44626;-81
2022/07/13 16:08:49;;;;;;;;;;;;;;;;;;5085127;28;47985;-81
2022/07/13 16:11:16;;;;;;;;;;;;;;;;;;5089162;28;42927;-81
2022/07/13 16:13:42;;;;;;;;;;;;;;;;;;5088605;28;46734;-81
2022/07/13 16:16:13;;;;;;;;;;;;;;;;;;5088565;28;46668;-80
2022/07/13 16:18:39;;;;;;;;;;;;;;;;;;5091489;28;42798;-80
2022/07/13 16:21:06;;;;;;;;;;;;;;;;;;5092193;28;45489;-80
2022/07/13 16:23:32;;;;;;;;;;;;;;;;;;5092651;28;46253;-79
2022/07/13 16:25:58;;;;;;;;;;;;;;;;;;5090736;28;46078;-80
2022/07/13 16:28:25;;;;;;;;;;;;;;;;;;5095411;28;45100;-78
2022/07/13 16:30:51;;;;;;;;;;;;;;;;;;5090329;28;42474;-79
2022/07/13 16:33:18;;;;;;;;;;;;;;;;;;5088366;28;47950;-80
2022/07/13 16:35:44;;;;;;;;;;;;;;;;;;5090749;28;48056;-80
2022/07/13 16:38:11;;;;;;;;;;;;;;;;;;5087271;28;45106;-79
2022/07/13 16:40:42;;;;;;;;;;;;;;;;;;5097316;28;47714;-79
2022/07/13 16:43:08;;;;;;;;;;;;;;;;;;5088217;28;45618;-80
2022/07/13 16:45:35;;;;;;;;;;;;;;;;;;5089842;28;43877;-80
2022/07/13 16:48:04;;;;;;;;;;;;;;;;;;5088211;28;45830;-80
2022/07/13 16:50:30;;;;;;;;;;;;;;;;;;5087283;28;45137;-80
2022/07/13 16:52:57;;;;;;;;;;;;;;;;;;5088321;28;45303;-80
2022/07/13 16:55:23;;;;;;;;;;;;;;;;;;5088988;28;47948;-80
2022/07/13 16:57:53;;;;;;;;;;;;;;;;;;5087736;28;42545;-81
2022/07/13 17:00:22;;;;;;;;;;;;;;;;;;5082751;27;46785;-80
2022/07/13 17:02:48;;;;;;;;;;;;;;;;;;5088871;28;48612;-80